Time;durP1;ratioP1;P1;durP2;ratioP2;P2;SDS_P1;SDS_P2;PMS_P1;PMS_P2;Temp;Humidity;BMP_temperature;BMP_pressure;BME280_temperature;BME280_humidity;BME280_pressure;Samples;Min_cycle;Max_cycle;Signal;HPM_P1;HPM_P2
2022/04/01 00:00:08;;;;;;;4.83;3.73;;;;;;;;;;5048063;28;20598;-68
2022/04/01 00:02:33;;;;;;;5.77;4.13;;;;;;;;;;5047207;28;20257;-68
2022/04/01 00:04:59;;;;;;;4.53;4.13;;;;;;;;;;5050060;28;20269;-69
2022/04/01 00:07:24;;;;;;;4.33;3.63;;;;;;;;;;5045902;28;20638;-69
2022/04/01 00:09:49;;;;;;;4.23;3.70;;;;;;;;;;5049208;28;20193;-70
2022/04/01 00:12:14;;;;;;;4.80;4.30;;;;;;;;;;5046341;28;20201;-70
2022/04/01 00:14:40;;;;;;;5.03;3.73;;;;;;;;;;5047271;28;20251;-70
2022/04/01 00:17:06;;;;;;;5.77;4.73;;;;;;;;;;5055974;28;20182;-69
2022/04/01 00:19:31;;;;;;;4.97;4.17;;;;;;;;;;5046437;28;20209;-68
2022/04/01 00:21:56;;;;;;;4.50;4.10;;;;;;;;;;5049906;28;20174;-70
2022/04/01 00:24:22;;;;;;;6.73;4.23;;;;;;;;;;5042790;28;20185;-69
2022/04/01 00:26:47;;;;;;;4.87;4.17;;;;;;;;;;5042244;28;20173;-70
2022/04/01 00:29:15;;;;;;;5.40;4.47;;;;;;;;;;5049420;28;20436;-70
2022/04/01 00:31:42;;;;;;;4.37;3.97;;;;;;;;;;5049888;28;20182;-70
2022/04/01 00:34:16;;;;;;;4.73;4.17;;;;;;;;;;5050965;28;20182;-71
2022/04/01 00:36:45;;;;;;;7.80;4.37;;;;;;;;;;5046686;28;20706;-71
2022/04/01 00:39:12;;;;;;;5.67;5.07;;;;;;;;;;5050416;28;20217;-71
2022/04/01 00:41:37;;;;;;;4.70;4.27;;;;;;;;;;5050349;28;20208;-70
2022/04/01 00:44:22;;;;;;;4.03;3.63;;;;;;;;;;5065264;28;20643;-70
2022/04/01 00:46:51;;;;;;;4.97;4.40;;;;;;;;;;5048264;28;20181;-70
2022/04/01 00:49:18;;;;;;;5.93;3.73;;;;;;;;;;5050218;28;20667;-70
2022/04/01 00:51:44;;;;;;;5.70;4.17;;;;;;;;;;5045933;28;20264;-71
2022/04/01 00:54:10;;;;;;;5.40;4.37;;;;;;;;;;5048481;28;20268;-70
2022/04/01 00:56:35;;;;;;;5.77;4.57;;;;;;;;;;5050087;28;20213;-71
2022/04/01 00:59:02;;;;;;;4.67;3.93;;;;;;;;;;5049659;28;20216;-71
2022/04/01 01:01:28;;;;;;;4.97;4.40;;;;;;;;;;5049371;28;20173;-71
2022/04/01 01:03:53;;;;;;;4.90;4.13;;;;;;;;;;5049338;28;20181;-70
2022/04/01 01:06:19;;;;;;;4.07;3.60;;;;;;;;;;5040231;28;20182;-70
2022/04/01 01:08:45;;;;;;;5.30;4.60;;;;;;;;;;5045726;28;20288;-71
2022/04/01 01:11:10;;;;;;;6.23;4.93;;;;;;;;;;5048575;28;20687;-70
2022/04/01 01:13:36;;;;;;;5.40;4.60;;;;;;;;;;5049832;28;20227;-71
2022/04/01 01:16:01;;;;;;;4.80;4.13;;;;;;;;;;5046958;28;20690;-70
2022/04/01 01:18:26;;;;;;;5.73;4.33;;;;;;;;;;5049797;28;20197;-70
2022/04/01 01:20:51;;;;;;;5.37;4.07;;;;;;;;;;5049414;28;20180;-70
2022/04/01 01:23:16;;;;;;;8.00;4.43;;;;;;;;;;5048663;28;20195;-70
2022/04/01 01:25:42;;;;;;;5.73;4.30;;;;;;;;;;5044013;28;20648;-70
2022/04/01 01:28:07;;;;;;;6.03;4.43;;;;;;;;;;5047255;28;20263;-70
2022/04/01 01:30:32;;;;;;;5.27;4.30;;;;;;;;;;5049748;28;20173;-69
2022/04/01 01:32:58;;;;;;;5.70;4.67;;;;;;;;;;5048922;28;20176;-70
2022/04/01 01:35:23;;;;;;;7.43;5.10;;;;;;;;;;5048323;28;20212;-70
2022/04/01 01:37:48;;;;;;;6.50;4.20;;;;;;;;;;5047832;28;20578;-70
2022/04/01 01:40:13;;;;;;;5.60;4.73;;;;;;;;;;5048793;28;20246;-70
2022/04/01 01:42:39;;;;;;;5.13;4.50;;;;;;;;;;5046866;28;20177;-70
2022/04/01 01:45:05;;;;;;;5.40;4.60;;;;;;;;;;5046236;28;20177;-70
2022/04/01 01:47:30;;;;;;;5.37;4.83;;;;;;;;;;5046518;28;20225;-70
2022/04/01 01:55:22;;;;;;;9.87;5.40;;;;;;;;;;5048500;28;20246;-69
2022/04/01 01:57:48;;;;;;;6.63;4.87;;;;;;;;;;5049323;28;20201;-69
2022/04/01 02:00:16;;;;;;;6.27;5.40;;;;;;;;;;5047964;28;20240;-70
2022/04/01 02:02:41;;;;;;;8.87;5.30;;;;;;;;;;5048834;28;20187;-70
2022/04/01 02:05:07;;;;;;;7.30;5.00;;;;;;;;;;5044136;28;20184;-70
2022/04/01 02:07:32;;;;;;;6.10;5.50;;;;;;;;;;5048936;28;20299;-68
2022/04/01 02:09:57;;;;;;;8.73;5.83;;;;;;;;;;5046714;28;20560;-70
2022/04/01 02:12:22;;;;;;;6.23;5.60;;;;;;;;;;5049826;28;20177;-70
2022/04/01 02:14:48;;;;;;;5.80;5.30;;;;;;;;;;5049297;28;20588;-70
2022/04/01 02:17:13;;;;;;;6.13;5.53;;;;;;;;;;5045768;28;20214;-71
2022/04/01 02:19:38;;;;;;;6.00;4.83;;;;;;;;;;5044080;28;20239;-70
2022/04/01 02:22:05;;;;;;;7.23;5.73;;;;;;;;;;5035908;28;20236;-71
2022/04/01 02:24:31;;;;;;;5.73;5.13;;;;;;;;;;5046386;28;20280;-69
2022/04/01 02:26:56;;;;;;;6.23;5.07;;;;;;;;;;5042947;28;20649;-69
2022/04/01 02:29:22;;;;;;;5.67;4.97;;;;;;;;;;5045391;28;20170;-71
2022/04/01 02:31:50;;;;;;;5.50;4.43;;;;;;;;;;5040397;28;20179;-69
2022/04/01 02:34:15;;;;;;;5.93;5.10;;;;;;;;;;5042602;28;20189;-69
2022/04/01 02:36:40;;;;;;;7.07;4.90;;;;;;;;;;5043681;28;20201;-69
2022/04/01 02:39:06;;;;;;;6.53;5.00;;;;;;;;;;5048794;28;20861;-70
2022/04/01 02:41:32;;;;;;;5.77;4.93;;;;;;;;;;5045924;28;20265;-70
2022/04/01 02:44:08;;;;;;;6.33;4.90;;;;;;;;;;5042430;28;20655;-70
2022/04/01 02:46:34;;;;;;;5.93;4.97;;;;;;;;;;5042111;28;20196;-70
2022/04/01 02:49:00;;;;;;;6.40;5.00;;;;;;;;;;5047610;28;20206;-70
2022/04/01 02:51:25;;;;;;;6.37;4.30;;;;;;;;;;5044277;28;20190;-70
2022/04/01 02:53:50;;;;;;;5.90;4.70;;;;;;;;;;5047345;28;20173;-70
2022/04/01 02:56:15;;;;;;;5.57;4.70;;;;;;;;;;5047935;28;20288;-70
2022/04/01 02:58:40;;;;;;;5.87;5.23;;;;;;;;;;5050091;28;20216;-71
2022/04/01 03:01:06;;;;;;;6.63;5.30;;;;;;;;;;5047755;28;20213;-71
2022/04/01 03:03:31;;;;;;;6.00;4.77;;;;;;;;;;5045331;28;20219;-72
2022/04/01 03:05:57;;;;;;;6.00;4.10;;;;;;;;;;5048042;28;20194;-71
2022/04/01 03:08:22;;;;;;;5.90;5.10;;;;;;;;;;5044173;28;20211;-72
2022/04/01 03:10:47;;;;;;;5.63;4.70;;;;;;;;;;5052489;28;20228;-69
2022/04/01 03:13:12;;;;;;;5.80;4.70;;;;;;;;;;5051251;28;20186;-72
2022/04/01 03:15:38;;;;;;;5.20;4.70;;;;;;;;;;5051596;28;20201;-72
2022/04/01 03:18:04;;;;;;;10.40;5.17;;;;;;;;;;5053451;28;20197;-72
2022/04/01 03:20:30;;;;;;;4.83;4.30;;;;;;;;;;5051889;28;20248;-72
2022/04/01 03:22:55;;;;;;;5.83;4.33;;;;;;;;;;5045929;28;20325;-72
2022/04/01 03:25:20;;;;;;;4.53;3.90;;;;;;;;;;5046417;28;20641;-70
2022/04/01 03:27:46;;;;;;;5.10;4.17;;;;;;;;;;5047626;28;20584;-70
2022/04/01 03:30:11;;;;;;;4.67;4.20;;;;;;;;;;5052034;28;20177;-70
2022/04/01 03:32:40;;;;;;;4.63;4.07;;;;;;;;;;5053679;28;20192;-70
2022/04/01 03:35:09;;;;;;;5.30;4.47;;;;;;;;;;5051588;28;20209;-70
2022/04/01 03:37:35;;;;;;;7.03;5.13;;;;;;;;;;5051497;28;20239;-70
2022/04/01 03:40:00;;;;;;;5.80;4.47;;;;;;;;;;5048964;28;20181;-70
2022/04/01 03:42:30;;;;;;;5.53;4.53;;;;;;;;;;5049240;28;20641;-70
2022/04/01 03:44:55;;;;;;;4.60;4.10;;;;;;;;;;5041210;28;20260;-70
2022/04/01 03:47:23;;;;;;;5.37;4.60;;;;;;;;;;5052174;28;20197;-70
2022/04/01 03:49:54;;;;;;;8.83;5.27;;;;;;;;;;5050557;28;21724;-70
2022/04/01 03:52:19;;;;;;;7.20;4.40;;;;;;;;;;5053487;28;20651;-70
2022/04/01 03:54:46;;;;;;;5.83;4.93;;;;;;;;;;5056100;28;20185;-70
2022/04/01 03:57:13;;;;;;;6.13;4.50;;;;;;;;;;5051633;28;20748;-70
2022/04/01 03:59:42;;;;;;;6.10;4.50;;;;;;;;;;5050888;28;20178;-69
2022/04/01 04:02:08;;;;;;;6.07;4.00;;;;;;;;;;5048852;28;20182;-70
2022/04/01 04:04:35;;;;;;;4.70;4.17;;;;;;;;;;5044813;28;20709;-70
2022/04/01 04:07:01;;;;;;;5.67;3.87;;;;;;;;;;5051803;28;20182;-69
2022/04/01 04:09:26;;;;;;;5.80;4.43;;;;;;;;;;5052295;28;20231;-70
2022/04/01 04:11:52;;;;;;;5.97;4.40;;;;;;;;;;5049655;28;20550;-70
2022/04/01 04:14:18;;;;;;;6.50;4.50;;;;;;;;;;5052147;28;20626;-70
2022/04/01 04:16:45;;;;;;;6.63;4.30;;;;;;;;;;5050451;28;20202;-70
2022/04/01 04:19:19;;;;;;;6.07;4.23;;;;;;;;;;5047952;28;20285;-70
2022/04/01 04:21:49;;;;;;;4.00;3.17;;;;;;;;;;5044264;28;20249;-70
2022/04/01 04:24:19;;;;;;;4.23;3.73;;;;;;;;;;5046060;28;20181;-70
2022/04/01 04:26:47;;;;;;;4.40;3.97;;;;;;;;;;5048069;28;20178;-70
2022/04/01 04:29:13;;;;;;;5.10;4.60;;;;;;;;;;5050450;28;20247;-70
2022/04/01 04:31:42;;;;;;;5.57;4.20;;;;;;;;;;5045227;28;20189;-70
2022/04/01 04:34:11;;;;;;;7.10;4.57;;;;;;;;;;5035008;28;20182;-70
2022/04/01 04:36:40;;;;;;;4.70;4.03;;;;;;;;;;5051484;28;20221;-70
2022/04/01 04:39:07;;;;;;;4.57;3.77;;;;;;;;;;5046283;28;20243;-70
2022/04/01 04:41:33;;;;;;;5.13;4.13;;;;;;;;;;5039760;28;20173;-70
2022/04/01 04:43:59;;;;;;;9.20;5.17;;;;;;;;;;5049198;28;20753;-70
2022/04/01 04:46:25;;;;;;;5.93;4.57;;;;;;;;;;5050220;28;20173;-70
2022/04/01 04:48:50;;;;;;;6.43;4.90;;;;;;;;;;5050519;28;20263;-70
2022/04/01 04:51:16;;;;;;;5.33;4.60;;;;;;;;;;5040355;28;20190;-70
2022/04/01 04:53:43;;;;;;;5.40;4.37;;;;;;;;;;5047015;28;20246;-70
2022/04/01 04:56:09;;;;;;;5.37;4.33;;;;;;;;;;5048703;28;20201;-70
2022/04/01 04:58:39;;;;;;;5.40;4.30;;;;;;;;;;5049077;28;20197;-70
2022/04/01 05:01:13;;;;;;;5.00;4.33;;;;;;;;;;5041024;28;20785;-70
2022/04/01 05:03:47;;;;;;;5.70;4.53;;;;;;;;;;5041983;28;20195;-70
2022/04/01 05:06:16;;;;;;;5.17;4.17;;;;;;;;;;5044158;28;20210;-69
2022/04/01 05:08:41;;;;;;;7.07;4.57;;;;;;;;;;5048706;28;20288;-70
2022/04/01 05:11:17;;;;;;;6.67;4.47;;;;;;;;;;5050572;28;20205;-70
2022/04/01 05:13:58;;;;;;;7.57;4.23;;;;;;;;;;5046881;28;20173;-70
2022/04/01 05:16:24;;;;;;;5.80;4.47;;;;;;;;;;5053366;28;20196;-70
2022/04/01 05:19:09;;;;;;;4.73;4.23;;;;;;;;;;5047754;28;20200;-70
2022/04/01 05:21:41;;;;;;;6.00;4.60;;;;;;;;;;5046966;28;20185;-70
2022/04/01 05:24:07;;;;;;;6.20;4.70;;;;;;;;;;5048140;28;20169;-70
2022/04/01 05:26:42;;;;;;;5.60;4.97;;;;;;;;;;5050188;28;20662;-70
2022/04/01 05:29:10;;;;;;;5.37;4.60;;;;;;;;;;5050894;28;20627;-70
2022/04/01 05:31:36;;;;;;;5.50;4.13;;;;;;;;;;5051341;28;20212;-70
2022/04/01 05:34:09;;;;;;;7.97;4.63;;;;;;;;;;5050373;28;20189;-70
2022/04/01 05:36:34;;;;;;;5.13;4.33;;;;;;;;;;5043751;28;20553;-70
2022/04/01 05:39:00;;;;;;;6.67;4.37;;;;;;;;;;5046542;28;20205;-69
2022/04/01 05:41:25;;;;;;;5.67;4.50;;;;;;;;;;5045645;28;20178;-70
2022/04/01 05:43:50;;;;;;;5.57;4.57;;;;;;;;;;5046416;28;20759;-71
2022/04/01 05:46:16;;;;;;;7.07;4.90;;;;;;;;;;5043110;28;20260;-71
2022/04/01 05:48:42;;;;;;;5.80;4.33;;;;;;;;;;5049184;28;20719;-69
2022/04/01 05:51:10;;;;;;;5.30;4.00;;;;;;;;;;5050047;28;20209;-69
2022/04/01 05:53:36;;;;;;;4.90;4.33;;;;;;;;;;5049096;28;20185;-69
2022/04/01 05:56:03;;;;;;;5.60;4.30;;;;;;;;;;5048043;28;20228;-69
2022/04/01 05:58:29;;;;;;;5.27;3.97;;;;;;;;;;5041470;28;20209;-69
2022/04/01 06:01:11;;;;;;;6.13;4.33;;;;;;;;;;5052223;28;20178;-69
2022/04/01 06:03:55;;;;;;;5.20;4.00;;;;;;;;;;5049243;28;20662;-72
2022/04/01 06:06:27;;;;;;;4.70;3.60;;;;;;;;;;5041748;28;20255;-69
2022/04/01 06:09:08;;;;;;;5.60;3.73;;;;;;;;;;5050732;28;20197;-69
2022/04/01 06:11:41;;;;;;;7.60;4.03;;;;;;;;;;5047489;28;20264;-70
2022/04/01 06:14:14;;;;;;;4.60;3.73;;;;;;;;;;5047353;28;20186;-70
2022/04/01 06:16:43;;;;;;;4.60;3.60;;;;;;;;;;5048646;28;20206;-70
2022/04/01 06:19:21;;;;;;;4.60;3.90;;;;;;;;;;5050615;28;20194;-70
2022/04/01 06:21:48;;;;;;;5.37;3.53;;;;;;;;;;5050531;28;20166;-70
2022/04/01 06:24:32;;;;;;;5.07;3.87;;;;;;;;;;5051245;28;20173;-70
2022/04/01 06:26:58;;;;;;;7.10;3.90;;;;;;;;;;5061083;28;20203;-70
2022/04/01 06:29:32;;;;;;;5.43;3.87;;;;;;;;;;5054247;28;20173;-70
2022/04/01 06:32:02;;;;;;;5.97;4.10;;;;;;;;;;5054307;28;20255;-70
2022/04/01 06:34:41;;;;;;;6.90;3.63;;;;;;;;;;5053749;28;20551;-70
2022/04/01 06:37:08;;;;;;;6.13;3.97;;;;;;;;;;5053733;28;20246;-70
2022/04/01 06:39:39;;;;;;;4.57;3.70;;;;;;;;;;5049229;28;20283;-70
2022/04/01 06:42:05;;;;;;;8.37;4.00;;;;;;;;;;5052561;28;20591;-70
2022/04/01 06:44:30;;;;;;;4.37;3.33;;;;;;;;;;5041290;28;20727;-70
2022/04/01 06:46:56;;;;;;;5.07;4.00;;;;;;;;;;5043711;28;20269;-70
2022/04/01 06:49:22;;;;;;;6.20;3.80;;;;;;;;;;5043326;28;20178;-70
2022/04/01 06:51:47;;;;;;;8.67;4.30;;;;;;;;;;5049572;28;20267;-70
2022/04/01 06:54:12;;;;;;;5.17;3.80;;;;;;;;;;5048696;28;20264;-70
2022/04/01 06:56:37;;;;;;;4.73;3.43;;;;;;;;;;5053279;28;20209;-70
2022/04/01 06:59:05;;;;;;;4.93;2.90;;;;;;;;;;5049219;28;20683;-71
2022/04/01 07:01:30;;;;;;;3.73;2.90;;;;;;;;;;5047879;28;20189;-70
2022/04/01 07:03:55;;;;;;;3.80;3.00;;;;;;;;;;5050222;28;20185;-70
2022/04/01 07:06:20;;;;;;;5.23;3.00;;;;;;;;;;5051853;28;20189;-70
2022/04/01 07:08:47;;;;;;;4.20;2.87;;;;;;;;;;5051851;28;20205;-70
2022/04/01 07:11:13;;;;;;;5.10;2.67;;;;;;;;;;5052847;28;20181;-70
2022/04/01 07:13:38;;;;;;;3.50;2.57;;;;;;;;;;5049771;28;20185;-70
2022/04/01 07:16:05;;;;;;;4.77;2.23;;;;;;;;;;5053516;28;20197;-70
2022/04/01 07:18:30;;;;;;;2.97;2.53;;;;;;;;;;5048684;28;20212;-70
2022/04/01 07:20:55;;;;;;;3.97;2.73;;;;;;;;;;5047569;28;20178;-69
2022/04/01 07:23:21;;;;;;;3.50;2.40;;;;;;;;;;5047347;28;20166;-69
2022/04/01 07:25:46;;;;;;;4.60;2.67;;;;;;;;;;5050248;28;20173;-69
2022/04/01 07:28:11;;;;;;;5.67;2.93;;;;;;;;;;5050294;28;20245;-69
2022/04/01 07:30:37;;;;;;;5.73;2.10;;;;;;;;;;5050707;28;20181;-69
2022/04/01 07:33:03;;;;;;;4.50;2.10;;;;;;;;;;5048537;28;20178;-69
2022/04/01 07:35:29;;;;;;;3.90;2.20;;;;;;;;;;5047237;28;20205;-69
2022/04/01 07:37:55;;;;;;;2.70;2.33;;;;;;;;;;5048715;28;20296;-69
2022/04/01 07:40:21;;;;;;;3.77;2.20;;;;;;;;;;5052408;28;20734;-70
2022/04/01 07:42:48;;;;;;;5.57;2.03;;;;;;;;;;5046664;28;20256;-70
2022/04/01 07:45:13;;;;;;;3.60;2.53;;;;;;;;;;5048426;28;20178;-70
2022/04/01 07:47:42;;;;;;;3.47;2.20;;;;;;;;;;5053604;28;20204;-70
2022/04/01 07:50:07;;;;;;;2.17;1.83;;;;;;;;;;5050309;28;20185;-69
2022/04/01 07:52:33;;;;;;;4.60;1.93;;;;;;;;;;5047812;28;20645;-70
2022/04/01 07:54:58;;;;;;;4.77;2.07;;;;;;;;;;5051825;28;20295;-71
2022/04/01 07:57:24;;;;;;;2.83;1.73;;;;;;;;;;5045456;28;20292;-70
2022/04/01 07:59:49;;;;;;;2.80;1.90;;;;;;;;;;5054033;28;20165;-70
2022/04/01 08:02:15;;;;;;;3.13;1.70;;;;;;;;;;5047222;28;20259;-71
2022/04/01 08:04:40;;;;;;;5.10;1.90;;;;;;;;;;5044935;28;20644;-71
2022/04/01 08:07:05;;;;;;;4.37;1.73;;;;;;;;;;5047200;28;20650;-68
2022/04/01 08:09:30;;;;;;;2.80;1.77;;;;;;;;;;5048963;28;20174;-71
2022/04/01 08:11:56;;;;;;;8.07;2.93;;;;;;;;;;5049377;28;20176;-70
2022/04/01 08:14:21;;;;;;;2.23;1.33;;;;;;;;;;5047142;28;20694;-70
2022/04/01 08:16:47;;;;;;;4.00;1.73;;;;;;;;;;5051757;28;20300;-70
2022/04/01 08:19:12;;;;;;;2.87;1.63;;;;;;;;;;5049542;28;20235;-69
2022/04/01 08:21:38;;;;;;;2.93;1.37;;;;;;;;;;5052214;28;20184;-70
2022/04/01 08:24:04;;;;;;;3.70;1.63;;;;;;;;;;5041137;28;20265;-70
2022/04/01 08:26:29;;;;;;;4.77;2.87;;;;;;;;;;5047837;28;20665;-69
2022/04/01 08:28:54;;;;;;;3.80;1.53;;;;;;;;;;5052018;28;20212;-69
2022/04/01 08:31:22;;;;;;;5.83;1.60;;;;;;;;;;5050957;28;20200;-69
2022/04/01 08:33:48;;;;;;;3.03;1.60;;;;;;;;;;5050252;28;20194;-69
2022/04/01 08:36:14;;;;;;;3.23;1.37;;;;;;;;;;5049390;28;20731;-69
2022/04/01 08:38:40;;;;;;;2.40;1.30;;;;;;;;;;5049456;28;20205;-69
2022/04/01 08:41:05;;;;;;;5.27;1.63;;;;;;;;;;5048676;28;20178;-69
2022/04/01 08:43:31;;;;;;;2.30;1.63;;;;;;;;;;5051474;28;20547;-69
2022/04/01 08:45:58;;;;;;;1.57;1.30;;;;;;;;;;5049287;28;20246;-69
2022/04/01 08:48:23;;;;;;;2.53;1.60;;;;;;;;;;5047941;28;20212;-69
2022/04/01 08:50:49;;;;;;;4.70;1.50;;;;;;;;;;5048892;28;20181;-69
2022/04/01 08:53:15;;;;;;;3.50;1.77;;;;;;;;;;5047704;28;20323;-69
2022/04/01 08:55:44;;;;;;;3.53;1.60;;;;;;;;;;5047335;28;20296;-69
2022/04/01 08:58:10;;;;;;;2.97;1.60;;;;;;;;;;5050825;28;20209;-68
2022/04/01 09:00:36;;;;;;;2.60;1.60;;;;;;;;;;5051179;28;20174;-68
2022/04/01 09:03:02;;;;;;;5.80;2.00;;;;;;;;;;5049623;28;20177;-68
2022/04/01 09:05:27;;;;;;;3.10;1.53;;;;;;;;;;5048422;28;20239;-68
2022/04/01 09:08:06;;;;;;;3.47;1.53;;;;;;;;;;5050183;28;20221;-68
2022/04/01 09:10:48;;;;;;;2.30;1.33;;;;;;;;;;5046285;28;20212;-68
2022/04/01 09:13:13;;;;;;;1.80;1.40;;;;;;;;;;5045352;28;20193;-67
2022/04/01 09:15:42;;;;;;;3.10;1.90;;;;;;;;;;5044491;28;20198;-68
2022/04/01 09:18:07;;;;;;;5.13;1.40;;;;;;;;;;5045853;28;20198;-67
2022/04/01 09:20:43;;;;;;;1.70;1.27;;;;;;;;;;5050853;28;20162;-67
2022/04/01 09:23:08;;;;;;;4.23;1.40;;;;;;;;;;5048093;28;20181;-67
2022/04/01 09:25:34;;;;;;;2.57;1.57;;;;;;;;;;5050029;28;20177;-68
2022/04/01 09:27:59;;;;;;;1.97;1.53;;;;;;;;;;5046107;28;20194;-67
2022/04/01 09:30:26;;;;;;;2.70;1.57;;;;;;;;;;5049479;28;20656;-68
2022/04/01 09:32:55;;;;;;;2.40;1.40;;;;;;;;;;5049531;28;20184;-67
2022/04/01 09:35:23;;;;;;;2.33;1.67;;;;;;;;;;5048342;28;20205;-67
2022/04/01 09:37:49;;;;;;;1.80;1.37;;;;;;;;;;5051005;28;20577;-67
2022/04/01 09:40:18;;;;;;;1.53;1.43;;;;;;;;;;5045887;28;20548;-68
2022/04/01 09:42:47;;;;;;;2.90;1.33;;;;;;;;;;5049382;28;20210;-68
2022/04/01 09:45:16;;;;;;;1.80;1.60;;;;;;;;;;5048969;28;20178;-67
2022/04/01 09:47:42;;;;;;;2.60;0.97;;;;;;;;;;5049167;28;20195;-68
2022/04/01 09:50:15;;;;;;;2.90;1.40;;;;;;;;;;5050249;28;20256;-68
2022/04/01 09:52:40;;;;;;;1.60;1.50;;;;;;;;;;5049150;28;20181;-68
2022/04/01 09:55:07;;;;;;;1.90;1.50;;;;;;;;;;5046852;28;20185;-68
2022/04/01 09:57:33;;;;;;;2.10;1.37;;;;;;;;;;5044597;28;20201;-67
2022/04/01 09:59:58;;;;;;;2.33;1.53;;;;;;;;;;5048793;28;20644;-68
2022/04/01 10:02:24;;;;;;;2.07;1.30;;;;;;;;;;5053470;28;20197;-69
2022/04/01 10:04:50;;;;;;;2.87;1.50;;;;;;;;;;5048851;28;20200;-69
2022/04/01 10:07:15;;;;;;;2.50;1.50;;;;;;;;;;5052095;28;20332;-69
2022/04/01 10:09:40;;;;;;;1.73;1.40;;;;;;;;;;5047655;28;20307;-68
2022/04/01 10:12:10;;;;;;;2.67;1.67;;;;;;;;;;5050711;28;20220;-69
2022/04/01 10:14:38;;;;;;;2.73;1.77;;;;;;;;;;5045386;28;20181;-69
2022/04/01 10:17:04;;;;;;;2.40;1.57;;;;;;;;;;5051017;28;20339;-68
2022/04/01 10:19:30;;;;;;;3.10;1.40;;;;;;;;;;5049459;28;20269;-69
2022/04/01 10:21:55;;;;;;;2.33;1.60;;;;;;;;;;5051473;28;20182;-69
2022/04/01 10:24:27;;;;;;;2.60;1.73;;;;;;;;;;5050695;28;20712;-68
2022/04/01 10:27:04;;;;;;;5.00;1.60;;;;;;;;;;5049551;28;20178;-69
2022/04/01 10:29:30;;;;;;;1.73;1.40;;;;;;;;;;5049596;28;20266;-69
2022/04/01 10:32:16;;;;;;;1.90;1.43;;;;;;;;;;5051191;28;20192;-68
2022/04/01 10:34:48;;;;;;;2.20;2.00;;;;;;;;;;5046736;28;20192;-69
2022/04/01 10:37:14;;;;;;;2.23;1.67;;;;;;;;;;5045092;28;20327;-69
2022/04/01 10:39:50;;;;;;;2.00;1.60;;;;;;;;;;5047180;28;20251;-69
2022/04/01 10:42:16;;;;;;;1.80;1.53;;;;;;;;;;5052287;28;20181;-69
2022/04/01 10:44:44;;;;;;;3.20;1.97;;;;;;;;;;5053100;28;20173;-69
2022/04/01 10:47:10;;;;;;;4.57;2.40;;;;;;;;;;5052027;28;20200;-68
2022/04/01 10:52:19;;;;;;;5.47;2.07;;;;;;;;;;5048971;28;20563;-68
2022/04/01 10:54:49;;;;;;;2.70;2.13;;;;;;;;;;5051149;28;20186;-69
2022/04/01 10:57:35;;;;;;;2.40;1.90;;;;;;;;;;5046755;28;20680;-69
2022/04/01 11:00:02;;;;;;;4.53;2.20;;;;;;;;;;5041981;28;20189;-69
2022/04/01 11:02:27;;;;;;;2.80;2.30;;;;;;;;;;5053471;28;20177;-68
2022/04/01 11:04:53;;;;;;;2.43;2.03;;;;;;;;;;5053067;28;20247;-68
2022/04/01 11:07:21;;;;;;;2.20;2.00;;;;;;;;;;5045884;28;20625;-69
2022/04/01 11:09:53;;;;;;;4.57;2.50;;;;;;;;;;5046143;28;20209;-68
2022/04/01 11:12:21;;;;;;;5.43;3.00;;;;;;;;;;5050202;28;20270;-68
2022/04/01 11:15:07;;;;;;;2.67;2.30;;;;;;;;;;5045547;28;20718;-69
2022/04/01 11:17:38;;;;;;;3.73;2.17;;;;;;;;;;5050491;28;20205;-69
2022/04/01 11:20:16;;;;;;;4.60;2.23;;;;;;;;;;5050093;28;20182;-68
2022/04/01 11:22:45;;;;;;;3.20;2.53;;;;;;;;;;5049826;28;20180;-69
2022/04/01 11:25:12;;;;;;;3.67;2.20;;;;;;;;;;5041813;28;20659;-69
2022/04/01 11:27:42;;;;;;;3.03;2.50;;;;;;;;;;5047824;28;20231;-68
2022/04/01 11:30:08;;;;;;;5.00;2.60;;;;;;;;;;5050369;28;20204;-69
2022/04/01 11:32:35;;;;;;;2.47;2.23;;;;;;;;;;5053787;28;20606;-69
2022/04/01 11:35:01;;;;;;;3.83;2.57;;;;;;;;;;5045892;28;20649;-69
2022/04/01 11:37:26;;;;;;;4.63;2.20;;;;;;;;;;5048502;28;20231;-69
2022/04/01 11:39:51;;;;;;;5.73;2.37;;;;;;;;;;5052003;28;20177;-69
2022/04/01 11:42:16;;;;;;;3.13;2.63;;;;;;;;;;5049299;28;20178;-69
2022/04/01 11:44:55;;;;;;;2.80;2.30;;;;;;;;;;5048970;28;20178;-68
2022/04/01 11:47:32;;;;;;;5.20;3.27;;;;;;;;;;5042421;28;20271;-68
2022/04/01 11:50:11;;;;;;;4.33;3.20;;;;;;;;;;5038616;28;20202;-69
2022/04/01 11:52:41;;;;;;;4.47;2.77;;;;;;;;;;5047140;28;20272;-69
2022/04/01 11:55:10;;;;;;;6.87;3.70;;;;;;;;;;5051624;28;20185;-69
2022/04/01 11:57:35;;;;;;;3.53;3.07;;;;;;;;;;5061433;28;20190;-68
2022/04/01 12:00:00;;;;;;;3.70;3.40;;;;;;;;;;5054595;28;20170;-69
2022/04/01 12:02:28;;;;;;;5.10;3.43;;;;;;;;;;5048960;28;20186;-69
2022/04/01 12:04:53;;;;;;;3.70;3.20;;;;;;;;;;5045705;28;20189;-69
2022/04/01 12:10:04;;;;;;;4.60;3.60;;;;;;;;;;5047451;28;20208;-69
2022/04/01 12:12:30;;;;;;;7.73;4.27;;;;;;;;;;5042680;28;20200;-69
2022/04/01 12:14:56;;;;;;;3.90;3.60;;;;;;;;;;5047050;28;20186;-68
2022/04/01 12:17:22;;;;;;;5.20;3.50;;;;;;;;;;5046967;28;20610;-68
2022/04/01 12:19:48;;;;;;;4.30;3.37;;;;;;;;;;5049616;28;20577;-69
2022/04/01 12:22:13;;;;;;;5.70;4.40;;;;;;;;;;5046021;28;20231;-67
2022/04/01 12:24:39;;;;;;;4.17;3.77;;;;;;;;;;5034498;28;20202;-69
2022/04/01 12:27:09;;;;;;;5.30;3.70;;;;;;;;;;5042167;28;20292;-69
2022/04/01 12:29:35;;;;;;;4.80;4.00;;;;;;;;;;5045003;28;20192;-68
2022/04/01 12:32:02;;;;;;;3.63;3.20;;;;;;;;;;5046481;28;20546;-69
2022/04/01 12:34:28;;;;;;;4.60;3.83;;;;;;;;;;5050311;28;20661;-69
2022/04/01 12:37:01;;;;;;;4.80;3.70;;;;;;;;;;5049982;28;20209;-69
2022/04/01 12:39:27;;;;;;;5.97;4.40;;;;;;;;;;5050952;28;20667;-67
2022/04/01 12:41:53;;;;;;;4.50;3.83;;;;;;;;;;5047856;28;20264;-70
2022/04/01 12:44:21;;;;;;;6.70;4.57;;;;;;;;;;5048770;28;20695;-68
2022/04/01 12:46:48;;;;;;;4.47;3.90;;;;;;;;;;5038313;28;20193;-67
2022/04/01 12:49:14;;;;;;;6.10;3.90;;;;;;;;;;5038636;28;20729;-67
2022/04/01 12:51:47;;;;;;;4.77;4.17;;;;;;;;;;5036144;28;20595;-68
2022/04/01 12:54:22;;;;;;;7.00;4.23;;;;;;;;;;5039391;28;20277;-68
2022/04/01 12:56:49;;;;;;;5.40;4.23;;;;;;;;;;5035093;28;20221;-68
2022/04/01 12:59:16;;;;;;;4.50;3.87;;;;;;;;;;5034351;28;20679;-67
2022/04/01 13:01:42;;;;;;;3.83;3.43;;;;;;;;;;5035373;28;20266;-68
2022/04/01 13:04:09;;;;;;;9.70;3.77;;;;;;;;;;5041566;28;20231;-68
2022/04/01 13:06:34;;;;;;;4.77;4.30;;;;;;;;;;5047368;28;20185;-68
2022/04/01 13:08:59;;;;;;;4.77;3.47;;;;;;;;;;5050980;28;20829;-68
2022/04/01 13:11:34;;;;;;;5.53;4.07;;;;;;;;;;5047873;28;20651;-68
2022/04/01 13:13:59;;;;;;;5.17;3.57;;;;;;;;;;5049775;28;20178;-68
2022/04/01 13:16:24;;;;;;;6.07;4.00;;;;;;;;;;5048971;28;20224;-69
2022/04/01 13:18:49;;;;;;;6.77;3.57;;;;;;;;;;5050785;28;20288;-69
2022/04/01 13:21:16;;;;;;;3.80;3.10;;;;;;;;;;5048950;28;20205;-68
2022/04/01 13:23:42;;;;;;;3.63;3.33;;;;;;;;;;5044178;28;20178;-69
2022/04/01 13:26:07;;;;;;;4.13;3.13;;;;;;;;;;5049591;28;20704;-68
2022/04/01 13:28:32;;;;;;;5.10;2.87;;;;;;;;;;5047793;28;20246;-68
2022/04/01 13:30:58;;;;;;;4.27;2.70;;;;;;;;;;5050075;28;20174;-68
2022/04/01 13:33:23;;;;;;;4.67;2.77;;;;;;;;;;5047863;28;20187;-68
2022/04/01 13:35:50;;;;;;;3.43;2.83;;;;;;;;;;5046919;28;20202;-68
2022/04/01 13:38:15;;;;;;;6.00;3.07;;;;;;;;;;5050677;28;20300;-68
2022/04/01 13:40:40;;;;;;;6.07;2.60;;;;;;;;;;5045198;28;20185;-69
2022/04/01 13:43:06;;;;;;;4.40;2.77;;;;;;;;;;5048465;28;20686;-68
2022/04/01 13:45:33;;;;;;;4.00;2.53;;;;;;;;;;5049473;28;20252;-69
2022/04/01 13:47:58;;;;;;;3.40;2.60;;;;;;;;;;5048845;28;20691;-68
2022/04/01 13:50:24;;;;;;;3.40;2.70;;;;;;;;;;5044802;28;20178;-68
2022/04/01 13:52:50;;;;;;;3.67;1.93;;;;;;;;;;5048518;28;20616;-68
2022/04/01 13:55:15;;;;;;;4.27;2.40;;;;;;;;;;5049817;28;20272;-68
2022/04/01 13:57:40;;;;;;;2.00;1.80;;;;;;;;;;5046795;28;20190;-68
2022/04/01 14:00:06;;;;;;;4.00;2.30;;;;;;;;;;5046987;28;20174;-68
2022/04/01 14:02:31;;;;;;;1.70;1.60;;;;;;;;;;5046676;28;20225;-68
2022/04/01 14:04:56;;;;;;;3.53;2.63;;;;;;;;;;5048382;28;20650;-69
2022/04/01 14:07:21;;;;;;;4.37;1.87;;;;;;;;;;5045558;28;20611;-68
2022/04/01 14:09:46;;;;;;;3.13;2.20;;;;;;;;;;5044177;28;20173;-68
2022/04/01 14:12:13;;;;;;;2.03;1.53;;;;;;;;;;5047754;28;20324;-68
2022/04/01 14:14:38;;;;;;;3.90;1.80;;;;;;;;;;5039879;28;20212;-68
2022/04/01 14:17:04;;;;;;;3.17;2.10;;;;;;;;;;5044000;28;20633;-67
2022/04/01 14:19:29;;;;;;;2.10;1.60;;;;;;;;;;5048100;28;20178;-68
2022/04/01 14:21:54;;;;;;;2.53;1.53;;;;;;;;;;5048573;28;20219;-68
2022/04/01 14:24:19;;;;;;;3.00;1.73;;;;;;;;;;5051378;28;20201;-69
2022/04/01 14:26:45;;;;;;;1.87;1.60;;;;;;;;;;5053741;28;20182;-68
2022/04/01 14:32:01;;;;;;;2.40;1.60;;;;;;;;;;5049844;28;20705;-68
2022/04/01 14:34:27;;;;;;;2.53;1.90;;;;;;;;;;5050143;28;20430;-68
2022/04/01 14:36:54;;;;;;;3.70;2.03;;;;;;;;;;5044408;28;20190;-68
2022/04/01 14:39:19;;;;;;;2.70;1.57;;;;;;;;;;5050626;28;20600;-68
2022/04/01 14:41:44;;;;;;;4.13;1.17;;;;;;;;;;5046783;28;20204;-67
2022/04/01 14:44:10;;;;;;;1.97;1.50;;;;;;;;;;5048656;28;20197;-68
2022/04/01 14:46:36;;;;;;;2.90;1.40;;;;;;;;;;5046659;28;20236;-68
2022/04/01 14:49:01;;;;;;;2.40;1.30;;;;;;;;;;5049109;28;20275;-67
2022/04/01 14:51:26;;;;;;;1.70;1.60;;;;;;;;;;5051908;28;20603;-68
2022/04/01 14:53:52;;;;;;;4.13;1.60;;;;;;;;;;5047304;28;20177;-68
2022/04/01 14:56:17;;;;;;;3.13;1.93;;;;;;;;;;5050156;28;20748;-70